createdAt,value
2022-08-20T00:01:27.946Z,13.43
2022-08-20T00:04:17.664Z,13.67
2022-08-20T00:07:06.357Z,13.77
2022-08-20T00:09:55.129Z,14.33
2022-08-20T00:12:47.439Z,14.80
2022-08-20T00:15:38.277Z,15.43
2022-08-20T00:18:27.118Z,16.10
2022-08-20T00:21:19.421Z,16.90
2022-08-20T00:24:07.920Z,17.50
2022-08-20T00:26:56.348Z,15.87
2022-08-20T00:29:45.915Z,16.33
2022-08-20T00:32:43.404Z,17.60
2022-08-20T00:35:35.535Z,16.10
2022-08-20T00:38:24.648Z,17.80
2022-08-20T00:41:16.293Z,17.70
2022-08-20T00:44:11.873Z,18.57
2022-08-20T00:47:01.848Z,17.10
2022-08-20T00:49:50.008Z,18.47
2022-08-20T00:52:38.259Z,18.17
2022-08-20T00:55:31.474Z,18.23
2022-08-20T00:58:20.396Z,18.90
2022-08-20T01:01:10.109Z,18.30
2022-08-20T01:03:59.739Z,18.33
2022-08-20T01:06:48.678Z,18.03
2022-08-20T01:09:57.807Z,18.97
2022-08-20T01:12:49.597Z,19.33
2022-08-20T01:15:50.903Z,18.57
2022-08-20T01:18:40.024Z,19.30
2022-08-20T01:21:32.314Z,18.77
2022-08-20T01:24:27.582Z,18.27
2022-08-20T01:27:18.228Z,17.93
2022-08-20T01:30:08.548Z,20.10
2022-08-20T01:32:57.260Z,19.63
2022-08-20T01:35:46.817Z,19.47
2022-08-20T01:38:35.329Z,18.70
2022-08-20T01:41:52.643Z,18.53
2022-08-20T01:44:45.126Z,18.70
2022-08-20T01:47:36.458Z,19.63
2022-08-20T01:50:29.855Z,19.30
2022-08-20T01:53:22.147Z,20.17
2022-08-20T01:56:14.212Z,20.87
2022-08-20T01:59:07.399Z,20.23
2022-08-20T02:01:58.075Z,19.17
2022-08-20T02:04:46.651Z,18.87
2022-08-20T02:07:35.743Z,19.23
2022-08-20T02:10:24.516Z,19.77
2022-08-20T02:13:13.784Z,18.07
2022-08-20T02:16:02.037Z,16.43
2022-08-20T02:18:56.216Z,17.00
2022-08-20T02:21:48.145Z,17.67
2022-08-20T02:24:36.363Z,18.37
2022-08-20T02:27:24.589Z,17.67
2022-08-20T02:30:19.931Z,17.97
2022-08-20T02:33:18.308Z,17.13
2022-08-20T02:36:08.628Z,17.60
2022-08-20T02:38:57.031Z,16.97
2022-08-20T02:41:45.506Z,16.87
2022-08-20T02:44:33.734Z,16.30
2022-08-20T02:47:22.046Z,17.03
2022-08-20T02:50:14.535Z,16.37
2022-08-20T02:53:04.183Z,17.10
2022-08-20T02:55:52.791Z,15.63
2022-08-20T02:58:42.437Z,15.70
2022-08-20T03:01:31.456Z,14.53
2022-08-20T03:04:19.894Z,15.87
2022-08-20T03:07:13.063Z,15.77
2022-08-20T03:10:02.681Z,15.30
2022-08-20T03:12:50.885Z,15.57
2022-08-20T03:15:41.098Z,13.83
2022-08-20T03:18:32.658Z,14.80
2022-08-20T03:21:20.976Z,14.50
2022-08-20T03:24:09.505Z,15.20
2022-08-20T03:26:59.112Z,14.70
2022-08-20T03:29:47.342Z,12.67
2022-08-20T03:32:35.723Z,13.23
2022-08-20T03:35:26.305Z,12.17
2022-08-20T03:38:16.697Z,12.27
2022-08-20T03:41:05.447Z,12.47
2022-08-20T03:43:55.121Z,12.47
2022-08-20T03:46:43.286Z,12.93
2022-08-20T03:49:31.853Z,12.63
2022-08-20T03:52:20.007Z,12.67
2022-08-20T03:55:10.342Z,13.57
2022-08-20T03:58:02.712Z,13.17
2022-08-20T04:00:52.573Z,13.50
2022-08-20T04:03:41.297Z,13.23
2022-08-20T04:06:30.436Z,14.27
2022-08-20T04:09:18.783Z,13.63
2022-08-20T04:12:07.759Z,13.57
2022-08-20T04:14:55.982Z,13.53
2022-08-20T04:17:50.139Z,13.40
2022-08-20T04:20:41.482Z,15.23
2022-08-20T04:23:30.166Z,13.73
2022-08-20T04:26:19.991Z,14.87
2022-08-20T04:29:08.207Z,14.57
2022-08-20T04:31:56.799Z,13.90
2022-08-20T04:34:47.301Z,13.43
2022-08-20T04:37:35.850Z,14.50
2022-08-20T04:40:41.818Z,14.60
2022-08-20T04:43:33.537Z,14.23
2022-08-20T04:46:23.925Z,15.10
2022-08-20T04:49:12.607Z,14.60
2022-08-20T04:52:03.277Z,14.30
2022-08-20T04:54:51.558Z,14.83
2022-08-20T04:57:39.767Z,15.20
2022-08-20T05:00:28.637Z,14.47
2022-08-20T05:03:17.417Z,14.27
2022-08-20T05:06:06.803Z,13.03
2022-08-20T05:08:58.012Z,15.33
2022-08-20T05:11:46.327Z,14.87
2022-08-20T05:14:34.618Z,14.23
2022-08-20T05:17:23.871Z,14.40
2022-08-20T05:20:16.620Z,14.17
2022-08-20T05:23:04.937Z,15.93
2022-08-20T05:25:54.735Z,15.57
2022-08-20T05:28:54.252Z,15.23
2022-08-20T05:31:47.148Z,16.23
2022-08-20T05:34:35.357Z,16.00
2022-08-20T05:37:23.765Z,15.87
2022-08-20T05:40:16.480Z,14.93
2022-08-20T05:43:06.406Z,16.93
2022-08-20T05:45:56.852Z,17.10
2022-08-20T05:48:45.178Z,16.77
2022-08-20T05:51:33.465Z,16.77
2022-08-20T05:54:23.896Z,16.63
2022-08-20T05:57:12.266Z,16.97
2022-08-20T06:00:03.508Z,16.80
2022-08-20T06:03:09.065Z,16.50
2022-08-20T06:05:57.415Z,15.93
2022-08-20T06:08:45.602Z,17.87
2022-08-20T06:11:37.207Z,16.53
2022-08-20T06:14:25.904Z,14.50
2022-08-20T06:17:17.675Z,14.23
2022-08-20T06:20:11.897Z,14.27
2022-08-20T06:23:03.198Z,13.80
2022-08-20T06:25:51.479Z,13.40
2022-08-20T06:28:39.756Z,14.33
2022-08-20T06:31:28.540Z,13.60
2022-08-20T06:34:18.513Z,13.93
2022-08-20T06:37:16.120Z,11.70
2022-08-20T06:40:07.857Z,11.37
2022-08-20T06:42:57.177Z,8.57
2022-08-20T06:45:45.381Z,9.10
2022-08-20T06:48:33.561Z,8.87
2022-08-20T06:51:23.418Z,8.10
2022-08-20T06:54:12.360Z,7.60
2022-08-20T06:57:00.529Z,8.73
2022-08-20T06:59:54.320Z,7.23
2022-08-20T07:02:42.894Z,7.33
2022-08-20T07:05:32.993Z,6.87
2022-08-20T07:08:23.159Z,6.27
2022-08-20T07:11:12.337Z,6.13
2022-08-20T07:14:01.393Z,7.20
2022-08-20T07:16:50.581Z,7.53
2022-08-20T07:19:38.845Z,6.13
2022-08-20T07:22:28.238Z,6.20
2022-08-20T07:25:19.921Z,5.30
2022-08-20T07:28:16.195Z,4.00
2022-08-20T07:31:22.276Z,4.70
2022-08-20T07:34:11.774Z,3.97
2022-08-20T07:37:00.924Z,4.40
2022-08-20T07:39:50.595Z,3.90
2022-08-20T07:42:40.575Z,2.90
2022-08-20T07:45:30.126Z,2.73
2022-08-20T07:48:31.039Z,2.30
2022-08-20T07:51:22.833Z,1.90
2022-08-20T07:54:11.028Z,1.53
2022-08-20T07:57:02.582Z,1.50
2022-08-20T07:59:52.243Z,1.43
2022-08-20T08:02:40.829Z,1.47
2022-08-20T08:05:29.611Z,1.10
2022-08-20T08:08:21.802Z,1.33
2022-08-20T08:11:10.377Z,1.23
2022-08-20T08:14:01.187Z,1.40
2022-08-20T08:16:51.248Z,1.70
2022-08-20T08:19:43.595Z,1.73
2022-08-20T08:22:32.976Z,1.40
2022-08-20T08:25:21.315Z,1.47
2022-08-20T08:28:11.751Z,1.07
2022-08-20T08:31:00.333Z,1.07
2022-08-20T08:33:51.398Z,0.80
2022-08-20T08:36:40.313Z,0.70
2022-08-20T08:39:34.887Z,0.80
2022-08-20T08:42:29.837Z,1.03
2022-08-20T08:45:20.669Z,1.20
2022-08-20T08:48:09.422Z,1.47
2022-08-20T08:51:12.585Z,1.30
2022-08-20T08:54:06.440Z,1.10
2022-08-20T08:56:55.909Z,0.80
2022-08-20T08:59:52.361Z,1.03
2022-08-20T09:02:57.539Z,0.90
2022-08-20T09:05:51.953Z,1.00
2022-08-20T09:08:47.941Z,1.00
2022-08-20T09:11:48.190Z,1.00
2022-08-20T09:14:37.230Z,1.33
2022-08-20T09:17:25.758Z,1.73
2022-08-20T09:20:14.521Z,1.27
2022-08-20T09:23:03.217Z,1.00
2022-08-20T09:25:52.832Z,0.90
2022-08-20T09:28:41.003Z,1.00
2022-08-20T09:31:29.368Z,1.20
2022-08-20T09:34:17.613Z,1.30
2022-08-20T09:37:06.236Z,1.57
2022-08-20T09:39:54.897Z,1.37
2022-08-20T09:42:44.496Z,1.60
2022-08-20T09:45:33.547Z,1.27
2022-08-20T09:48:21.666Z,1.50
2022-08-20T09:51:20.376Z,1.47
2022-08-20T09:54:08.594Z,1.40
2022-08-20T09:56:57.222Z,1.10
2022-08-20T09:59:52.686Z,1.00
2022-08-20T10:02:41.945Z,1.40
2022-08-20T10:05:30.197Z,1.20
2022-08-20T10:08:18.685Z,1.60
2022-08-20T10:11:07.184Z,1.77
2022-08-20T10:13:55.372Z,2.50
2022-08-20T10:16:45.026Z,2.37
2022-08-20T10:19:33.380Z,2.17
2022-08-20T10:22:21.670Z,2.90
2022-08-20T10:25:10.382Z,2.50
2022-08-20T10:27:58.955Z,2.77
2022-08-20T10:30:47.334Z,2.60
2022-08-20T10:33:37.072Z,2.30
2022-08-20T10:36:25.366Z,2.30
2022-08-20T10:39:17.019Z,2.30
2022-08-20T10:42:05.567Z,1.30
2022-08-20T10:44:53.811Z,1.10
2022-08-20T10:47:42.782Z,1.60
2022-08-20T10:50:32.429Z,1.40
2022-08-20T10:53:20.579Z,1.70
2022-08-20T10:56:11.688Z,2.10
2022-08-20T10:59:02.408Z,2.60
2022-08-20T11:01:50.873Z,3.43
2022-08-20T11:05:04.882Z,3.57
2022-08-20T11:07:56.735Z,3.57
2022-08-20T11:10:45.219Z,3.50
2022-08-20T11:13:33.680Z,3.60
2022-08-20T11:16:22.018Z,3.50
2022-08-20T11:19:11.413Z,3.43
2022-08-20T11:21:59.678Z,3.23
2022-08-20T11:24:49.767Z,2.97
2022-08-20T11:27:40.777Z,3.07
2022-08-20T11:30:30.795Z,3.20
2022-08-20T11:33:19.212Z,3.10
2022-08-20T11:36:11.830Z,2.73
2022-08-20T11:39:00.095Z,3.07
2022-08-20T11:41:49.781Z,3.20
2022-08-20T11:44:44.079Z,2.80
2022-08-20T11:47:33.803Z,2.90
2022-08-20T11:50:23.260Z,3.13
2022-08-20T11:53:11.560Z,3.20
2022-08-20T11:56:00.127Z,3.30
2022-08-20T11:58:50.587Z,3.20
2022-08-20T12:01:39.024Z,3.40
2022-08-20T12:04:27.302Z,3.83
2022-08-20T12:07:19.144Z,3.70
2022-08-20T12:10:10.084Z,3.50
2022-08-20T12:12:58.721Z,3.13
2022-08-20T12:15:51.287Z,2.93
2022-08-20T12:18:39.523Z,3.10
2022-08-20T12:21:31.961Z,3.30
2022-08-20T12:24:20.570Z,3.20
2022-08-20T12:27:14.141Z,2.93
2022-08-20T12:30:06.061Z,2.57
2022-08-20T12:32:55.891Z,2.73
2022-08-20T12:35:44.388Z,2.60
2022-08-20T12:38:32.744Z,3.03
2022-08-20T12:41:21.107Z,2.37
2022-08-20T12:44:10.823Z,2.40
2022-08-20T12:47:12.144Z,2.70
2022-08-20T12:50:10.566Z,2.50
2022-08-20T12:52:58.943Z,2.80
2022-08-20T12:55:47.793Z,3.10
2022-08-20T12:58:36.699Z,3.13
2022-08-20T13:01:28.050Z,3.57
2022-08-20T13:04:16.287Z,2.93
2022-08-20T13:07:06.760Z,3.27
2022-08-20T13:10:00.348Z,3.60
2022-08-20T13:12:48.726Z,3.77
2022-08-20T13:15:37.452Z,3.30
2022-08-20T13:18:25.633Z,3.40
2022-08-20T13:21:13.872Z,3.50
2022-08-20T13:24:03.560Z,3.67
2022-08-20T13:26:52.124Z,3.00
2022-08-20T13:29:40.751Z,3.80
2022-08-20T13:32:29.018Z,3.40
2022-08-20T13:35:17.921Z,3.10
2022-08-20T13:38:06.184Z,3.27
2022-08-20T13:40:55.481Z,3.97
2022-08-20T13:43:46.703Z,4.00
2022-08-20T13:46:34.773Z,3.50
2022-08-20T13:49:22.597Z,3.50
2022-08-20T13:52:10.768Z,2.80
2022-08-20T13:54:58.746Z,3.10
2022-08-20T13:57:48.913Z,2.87
2022-08-20T14:00:37.534Z,2.90
2022-08-20T14:03:25.870Z,2.70
2022-08-20T14:06:15.091Z,2.72
2022-08-20T14:09:02.914Z,3.38
2022-08-20T14:11:50.711Z,2.50
2022-08-20T14:14:39.994Z,2.85
2022-08-20T14:20:19.679Z,2.78
2022-08-20T14:23:32.630Z,3.00
2022-08-20T14:26:25.523Z,2.75
2022-08-20T14:29:13.805Z,2.85
2022-08-20T14:32:04.095Z,2.60
2022-08-20T14:34:52.346Z,3.20
2022-08-20T14:42:00.199Z,3.15
2022-08-20T14:44:48.482Z,3.20
2022-08-20T14:47:40.675Z,3.00
2022-08-20T14:50:32.671Z,3.13
2022-08-20T14:53:24.238Z,3.05
2022-08-20T14:56:12.519Z,3.22
2022-08-20T14:59:00.898Z,3.60
2022-08-20T15:02:17.158Z,3.75
2022-08-20T15:05:19.049Z,4.13
2022-08-20T15:08:07.858Z,3.80
2022-08-20T15:18:19.950Z,4.27
2022-08-20T15:21:10.156Z,4.40
2022-08-20T15:23:58.595Z,4.47
2022-08-20T15:26:46.750Z,4.70
2022-08-20T15:29:34.960Z,4.93
2022-08-20T15:32:23.566Z,5.47
2022-08-20T15:35:13.263Z,5.10
2022-08-20T15:38:03.209Z,5.67
2022-08-20T15:40:51.647Z,6.07
2022-08-20T15:43:40.001Z,6.40
2022-08-20T15:46:33.565Z,7.17
2022-08-20T15:49:26.845Z,5.97
2022-08-20T15:52:16.476Z,6.73
2022-08-20T15:55:08.631Z,7.72
2022-08-20T15:58:06.340Z,7.63
2022-08-20T16:01:24.599Z,6.43
2022-08-20T16:04:54.409Z,8.07
2022-08-20T16:07:54.796Z,8.70
2022-08-20T16:10:55.445Z,7.70
2022-08-20T16:13:50.613Z,7.67
2022-08-20T16:16:44.358Z,7.23
2022-08-20T16:19:41.692Z,8.63
2022-08-20T16:22:38.917Z,8.87
2022-08-20T16:25:32.819Z,9.20
2022-08-20T16:28:28.095Z,11.07
2022-08-20T16:31:29.612Z,11.50
2022-08-20T16:34:34.341Z,12.10
2022-08-20T16:37:33.797Z,13.07
2022-08-20T16:40:49.485Z,13.90
2022-08-20T16:43:58.744Z,14.83
2022-08-20T16:47:14.352Z,15.27
2022-08-20T16:50:48.551Z,14.37
2022-08-20T16:54:05.219Z,14.20
2022-08-20T16:57:00.342Z,14.93
2022-08-20T17:00:06.434Z,14.93
2022-08-20T17:02:57.586Z,14.60
2022-08-20T17:05:49.017Z,12.70
2022-08-20T17:08:48.736Z,11.90
2022-08-20T17:11:38.392Z,11.43
2022-08-20T17:14:26.789Z,10.17
2022-08-20T17:17:26.945Z,9.77
2022-08-20T17:20:20.219Z,10.40
2022-08-20T17:23:16.275Z,10.90
2022-08-20T17:26:22.990Z,9.33
2022-08-20T17:29:14.860Z,9.20
2022-08-20T17:32:17.922Z,9.97
2022-08-20T17:35:09.036Z,9.17
2022-08-20T17:37:58.639Z,7.73
2022-08-20T17:40:47.118Z,8.07
2022-08-20T17:43:35.667Z,8.57
2022-08-20T17:46:34.792Z,9.67
2022-08-20T17:49:33.685Z,7.93
2022-08-20T17:52:28.051Z,7.97
2022-08-20T17:55:16.008Z,8.00
2022-08-20T17:58:07.329Z,7.23
2022-08-20T18:00:55.181Z,7.50
2022-08-20T18:03:43.143Z,7.23
2022-08-20T18:06:36.002Z,6.67
2022-08-20T18:09:32.173Z,7.23
2022-08-20T18:12:33.726Z,7.10
2022-08-20T18:15:26.069Z,7.10
2022-08-20T18:18:25.853Z,6.63
2022-08-20T18:21:33.818Z,6.57
2022-08-20T18:24:28.715Z,6.33
2022-08-20T18:27:21.475Z,6.63
2022-08-20T18:30:17.511Z,7.13
2022-08-20T18:33:08.690Z,6.33
2022-08-20T18:36:10.012Z,5.83
2022-08-20T18:39:02.101Z,5.67
2022-08-20T18:42:01.486Z,5.60
2022-08-20T18:44:52.403Z,5.37
2022-08-20T18:47:45.732Z,5.23
2022-08-20T18:50:45.570Z,5.67
2022-08-20T18:53:34.702Z,5.10
2022-08-20T18:56:36.740Z,5.20
2022-08-20T18:59:26.189Z,4.90
2022-08-20T19:02:23.719Z,6.20
2022-08-20T19:05:14.034Z,5.20
2022-08-20T19:08:04.987Z,5.70
2022-08-20T19:10:59.834Z,5.37
2022-08-20T19:14:09.537Z,5.60
2022-08-20T19:17:05.639Z,5.63
2022-08-20T19:20:00.710Z,4.37
2022-08-20T19:22:51.477Z,4.43
2022-08-20T19:25:49.205Z,5.10
2022-08-20T19:28:44.760Z,4.93
2022-08-20T19:31:34.786Z,4.57
2022-08-20T19:34:25.879Z,4.93
2022-08-20T19:37:35.825Z,4.77
2022-08-20T19:40:29.249Z,4.37
2022-08-20T19:43:19.640Z,4.60
2022-08-20T19:46:07.720Z,4.13
2022-08-20T19:49:12.275Z,4.83
2022-08-20T19:52:22.899Z,4.87
2022-08-20T19:55:20.183Z,5.20
2022-08-20T19:58:17.902Z,4.70
2022-08-20T20:01:18.529Z,4.73
2022-08-20T20:04:08.848Z,5.10
2022-08-20T20:06:58.354Z,4.60
2022-08-20T20:09:51.177Z,4.47
2022-08-20T20:12:40.500Z,5.37
2022-08-20T20:15:28.440Z,5.10
2022-08-20T20:18:16.396Z,6.07
2022-08-20T20:21:13.970Z,5.93
2022-08-20T20:24:02.489Z,5.97
2022-08-20T20:26:52.115Z,5.33
2022-08-20T20:29:40.263Z,5.43
2022-08-20T20:32:30.396Z,5.47
2022-08-20T20:35:29.055Z,6.07
2022-08-20T20:38:27.074Z,5.47
2022-08-20T20:41:22.343Z,5.57
2022-08-20T20:44:20.766Z,5.53
2022-08-20T20:47:17.845Z,6.13
2022-08-20T20:50:08.642Z,6.20
2022-08-20T20:52:57.268Z,6.03
2022-08-20T20:55:56.411Z,6.40
2022-08-20T20:58:47.148Z,6.20
2022-08-20T21:01:48.658Z,5.87
2022-08-20T21:04:42.318Z,6.07
2022-08-20T21:07:31.344Z,6.20
2022-08-20T21:10:20.547Z,6.07
2022-08-20T21:13:09.925Z,6.50
2022-08-20T21:15:57.903Z,5.90
2022-08-20T21:18:47.862Z,5.80
2022-08-20T21:21:37.094Z,6.70
2022-08-20T21:24:25.086Z,6.13
2022-08-20T21:27:13.592Z,5.53
2022-08-20T21:30:01.606Z,5.93
2022-08-20T21:32:50.594Z,5.90
2022-08-20T21:35:40.151Z,5.77
2022-08-20T21:38:28.287Z,5.70
2022-08-20T21:41:16.292Z,5.47
2022-08-20T21:44:11.143Z,6.00
2022-08-20T21:47:00.551Z,6.17
2022-08-20T21:49:48.446Z,6.50
2022-08-20T21:52:38.127Z,5.90
2022-08-20T21:55:39.586Z,6.57
2022-08-20T21:58:27.761Z,6.43
2022-08-20T22:01:17.075Z,6.47
2022-08-20T22:04:06.431Z,5.97
2022-08-20T22:06:54.699Z,5.60
2022-08-20T22:09:44.449Z,6.47
2022-08-20T22:12:32.338Z,6.67
2022-08-20T22:15:20.530Z,5.90
2022-08-20T22:18:08.833Z,6.80
2022-08-20T22:20:57.453Z,6.70
2022-08-20T22:23:45.634Z,6.53
2022-08-20T22:26:38.119Z,8.03
2022-08-20T22:29:26.239Z,7.67
2022-08-20T22:32:15.268Z,7.37
2022-08-20T22:35:06.416Z,7.17
2022-08-20T22:37:54.483Z,7.93
2022-08-20T22:40:42.856Z,7.73
2022-08-20T22:43:32.434Z,6.77
2022-08-20T22:46:20.823Z,7.53
2022-08-20T22:49:13.735Z,7.13
2022-08-20T22:52:02.073Z,7.40
2022-08-20T22:54:49.948Z,7.30
2022-08-20T22:57:39.864Z,7.10
2022-08-20T23:00:29.337Z,7.13
2022-08-20T23:03:19.897Z,7.37
2022-08-20T23:06:29.681Z,7.27
2022-08-20T23:09:20.979Z,6.67
2022-08-20T23:12:10.286Z,6.80
2022-08-20T23:14:58.350Z,5.93
2022-08-20T23:17:48.410Z,6.20
2022-08-20T23:20:36.402Z,6.67
2022-08-20T23:23:25.338Z,6.93
2022-08-20T23:26:18.663Z,6.33
2022-08-20T23:29:06.984Z,7.20
2022-08-20T23:31:55.773Z,7.77
2022-08-20T23:34:45.283Z,7.80
2022-08-20T23:37:44.447Z,7.73
2022-08-20T23:40:32.759Z,7.70
2022-08-20T23:43:20.620Z,7.50
2022-08-20T23:46:09.711Z,7.60
2022-08-20T23:48:57.598Z,7.87
2022-08-20T23:51:46.753Z,7.70
2022-08-20T23:54:34.612Z,7.63
2022-08-20T23:57:22.521Z,8.23
